sensor_id;sensor_type;location;lat;lon;timestamp;pressure;altitude;pressure_sealevel;temperature;humidity
38616;BME280;24370;51.986;4.666;2023-04-09T00:02:15;102663.22;;;16.52;51.19
38616;BME280;24370;51.986;4.666;2023-04-09T00:04:40;102673.63;;;16.77;51.15
38616;BME280;24370;51.986;4.666;2023-04-09T00:07:06;102666.53;;;16.93;50.48
38616;BME280;24370;51.986;4.666;2023-04-09T00:09:31;102667.28;;;17.10;49.07
38616;BME280;24370;51.986;4.666;2023-04-09T00:11:56;102668.19;;;17.08;49.50
38616;BME280;24370;51.986;4.666;2023-04-09T00:14:22;102665.56;;;17.06;49.26
38616;BME280;24370;51.986;4.666;2023-04-09T00:16:48;102661.78;;;17.32;48.83
38616;BME280;24370;51.986;4.666;2023-04-09T00:19:13;102662.66;;;17.34;48.03
38616;BME280;24370;51.986;4.666;2023-04-09T00:21:39;102660.09;;;17.25;48.36
38616;BME280;24370;51.986;4.666;2023-04-09T00:24:04;102663.47;;;17.42;48.23
38616;BME280;24370;51.986;4.666;2023-04-09T00:26:30;102658.22;;;17.36;47.74
38616;BME280;24370;51.986;4.666;2023-04-09T00:28:55;102657.44;;;17.25;47.37
38616;BME280;24370;51.986;4.666;2023-04-09T00:31:21;102650.84;;;16.67;49.38
38616;BME280;24370;51.986;4.666;2023-04-09T00:33:46;102653.28;;;16.96;48.85
38616;BME280;24370;51.986;4.666;2023-04-09T00:36:11;102648.81;;;17.04;48.51
38616;BME280;24370;51.986;4.666;2023-04-09T00:38:37;102650.38;;;17.25;47.81
38616;BME280;24370;51.986;4.666;2023-04-09T00:41:02;102649.94;;;16.69;49.02
38616;BME280;24370;51.986;4.666;2023-04-09T00:43:28;102646.16;;;17.07;48.44
38616;BME280;24370;51.986;4.666;2023-04-09T00:45:53;102644.41;;;17.03;48.04
38616;BME280;24370;51.986;4.666;2023-04-09T00:48:19;102644.34;;;17.12;47.97
38616;BME280;24370;51.986;4.666;2023-04-09T00:50:45;102636.47;;;17.05;48.45
38616;BME280;24370;51.986;4.666;2023-04-09T00:53:11;102638.84;;;17.37;47.25
38616;BME280;24370;51.986;4.666;2023-04-09T00:55:38;102637.50;;;16.90;48.46
38616;BME280;24370;51.986;4.666;2023-04-09T00:58:04;102640.50;;;17.48;46.91
38616;BME280;24370;51.986;4.666;2023-04-09T01:00:30;102627.41;;;17.37;46.75
38616;BME280;24370;51.986;4.666;2023-04-09T01:02:56;102633.59;;;17.34;47.04
38616;BME280;24370;51.986;4.666;2023-04-09T01:05:52;102641.47;;;17.37;46.85
38616;BME280;24370;51.986;4.666;2023-04-09T01:08:50;102633.56;;;17.37;46.95
38616;BME280;24370;51.986;4.666;2023-04-09T01:11:37;102632.59;;;17.43;46.76
38616;BME280;24370;51.986;4.666;2023-04-09T01:14:10;102631.03;;;17.23;47.17
38616;BME280;24370;51.986;4.666;2023-04-09T01:16:40;102625.75;;;17.23;47.14
38616;BME280;24370;51.986;4.666;2023-04-09T01:21:45;102631.84;;;17.33;47.10
38616;BME280;24370;51.986;4.666;2023-04-09T01:27:02;102631.91;;;17.24;47.00
38616;BME280;24370;51.986;4.666;2023-04-09T01:29:32;102623.25;;;17.09;47.34
38616;BME280;24370;51.986;4.666;2023-04-09T01:31:59;102628.25;;;17.37;46.76
38616;BME280;24370;51.986;4.666;2023-04-09T01:34:27;102623.47;;;16.82;48.68
38616;BME280;24370;51.986;4.666;2023-04-09T01:36:55;102631.34;;;16.89;48.24
38616;BME280;24370;51.986;4.666;2023-04-09T01:39:22;102626.09;;;16.82;47.90
38616;BME280;24370;51.986;4.666;2023-04-09T01:41:49;102633.03;;;16.96;47.69
38616;BME280;24370;51.986;4.666;2023-04-09T01:44:15;102629.72;;;16.67;49.20
38616;BME280;24370;51.986;4.666;2023-04-09T01:46:41;102639.94;;;17.16;48.59
38616;BME280;24370;51.986;4.666;2023-04-09T01:49:08;102632.69;;;17.34;48.79
38616;BME280;24370;51.986;4.666;2023-04-09T01:51:34;102637.00;;;17.45;48.35
38616;BME280;24370;51.986;4.666;2023-04-09T01:54:00;102627.81;;;17.77;48.10
38616;BME280;24370;51.986;4.666;2023-04-09T01:56:25;102637.03;;;18.22;47.29
38616;BME280;24370;51.986;4.666;2023-04-09T01:58:51;102633.16;;;18.44;46.85
38616;BME280;24370;51.986;4.666;2023-04-09T02:01:25;102631.03;;;18.07;47.82
38616;BME280;24370;51.986;4.666;2023-04-09T02:04:03;102631.19;;;18.59;46.89
38616;BME280;24370;51.986;4.666;2023-04-09T02:09:10;102638.97;;;18.71;46.35
38616;BME280;24370;51.986;4.666;2023-04-09T02:11:37;102638.34;;;18.52;46.59
38616;BME280;24370;51.986;4.666;2023-04-09T02:14:05;102630.28;;;19.16;45.19
38616;BME280;24370;51.986;4.666;2023-04-09T02:16:33;102635.56;;;18.60;46.50
38616;BME280;24370;51.986;4.666;2023-04-09T02:18:58;102642.25;;;18.86;46.06
38616;BME280;24370;51.986;4.666;2023-04-09T02:21:27;102639.34;;;19.04;45.58
38616;BME280;24370;51.986;4.666;2023-04-09T02:23:54;102630.75;;;18.88;45.92
38616;BME280;24370;51.986;4.666;2023-04-09T02:26:23;102626.97;;;19.03;45.76
38616;BME280;24370;51.986;4.666;2023-04-09T02:28:48;102614.69;;;18.41;47.27
38616;BME280;24370;51.986;4.666;2023-04-09T02:31:14;102619.09;;;18.98;45.74
38616;BME280;24370;51.986;4.666;2023-04-09T02:33:39;102615.06;;;19.27;45.06
38616;BME280;24370;51.986;4.666;2023-04-09T02:36:05;102617.50;;;18.90;45.77
38616;BME280;24370;51.986;4.666;2023-04-09T02:38:31;102612.84;;;19.04;46.75
38616;BME280;24370;51.986;4.666;2023-04-09T02:40:56;102618.56;;;18.75;46.23
38616;BME280;24370;51.986;4.666;2023-04-09T02:43:22;102607.84;;;19.37;45.68
38616;BME280;24370;51.986;4.666;2023-04-09T02:45:47;102608.97;;;18.69;46.43
38616;BME280;24370;51.986;4.666;2023-04-09T02:48:13;102609.25;;;18.51;45.69
38616;BME280;24370;51.986;4.666;2023-04-09T02:50:38;102602.78;;;18.09;46.90
38616;BME280;24370;51.986;4.666;2023-04-09T02:53:04;102600.69;;;18.33;46.38
38616;BME280;24370;51.986;4.666;2023-04-09T02:55:29;102603.78;;;18.63;45.86
38616;BME280;24370;51.986;4.666;2023-04-09T02:57:55;102594.91;;;18.05;47.02
38616;BME280;24370;51.986;4.666;2023-04-09T03:00:20;102601.53;;;18.93;44.41
38616;BME280;24370;51.986;4.666;2023-04-09T03:02:46;102602.44;;;18.93;44.77
38616;BME280;24370;51.986;4.666;2023-04-09T03:05:11;102595.81;;;19.16;44.22
38616;BME280;24370;51.986;4.666;2023-04-09T03:07:36;102587.31;;;19.47;43.78
38616;BME280;24370;51.986;4.666;2023-04-09T03:10:02;102598.25;;;19.28;44.01
38616;BME280;24370;51.986;4.666;2023-04-09T03:12:27;102586.72;;;19.31;43.52
38616;BME280;24370;51.986;4.666;2023-04-09T03:14:52;102592.81;;;18.88;44.83
38616;BME280;24370;51.986;4.666;2023-04-09T03:17:18;102585.81;;;18.23;45.65
38616;BME280;24370;51.986;4.666;2023-04-09T03:19:43;102591.41;;;18.62;45.32
38616;BME280;24370;51.986;4.666;2023-04-09T03:22:09;102594.03;;;19.18;44.14
38616;BME280;24370;51.986;4.666;2023-04-09T03:24:34;102587.00;;;19.15;44.19
38616;BME280;24370;51.986;4.666;2023-04-09T03:26:59;102583.88;;;18.36;45.95
38616;BME280;24370;51.986;4.666;2023-04-09T03:29:25;102589.66;;;19.15;43.59
38616;BME280;24370;51.986;4.666;2023-04-09T03:31:50;102579.94;;;19.61;42.87
38616;BME280;24370;51.986;4.666;2023-04-09T03:34:16;102568.69;;;19.94;42.68
38616;BME280;24370;51.986;4.666;2023-04-09T03:36:41;102565.78;;;19.62;42.77
38616;BME280;24370;51.986;4.666;2023-04-09T03:39:06;102571.69;;;19.31;43.53
38616;BME280;24370;51.986;4.666;2023-04-09T03:41:32;102566.09;;;19.47;43.51
38616;BME280;24370;51.986;4.666;2023-04-09T03:43:57;102562.66;;;19.42;43.24
38616;BME280;24370;51.986;4.666;2023-04-09T03:46:23;102565.56;;;19.28;43.53
38616;BME280;24370;51.986;4.666;2023-04-09T03:48:49;102566.91;;;19.04;44.52
38616;BME280;24370;51.986;4.666;2023-04-09T03:51:15;102570.00;;;19.29;44.47
38616;BME280;24370;51.986;4.666;2023-04-09T03:53:41;102563.34;;;18.50;45.24
38616;BME280;24370;51.986;4.666;2023-04-09T03:56:07;102557.81;;;19.17;44.48
38616;BME280;24370;51.986;4.666;2023-04-09T03:58:33;102556.41;;;19.44;43.35
38616;BME280;24370;51.986;4.666;2023-04-09T04:00:59;102561.53;;;19.54;43.25
38616;BME280;24370;51.986;4.666;2023-04-09T04:03:24;102560.56;;;19.12;44.10
38616;BME280;24370;51.986;4.666;2023-04-09T04:05:49;102559.53;;;19.65;43.10
38616;BME280;24370;51.986;4.666;2023-04-09T04:08:15;102564.44;;;19.87;42.73
38616;BME280;24370;51.986;4.666;2023-04-09T04:10:40;102554.41;;;19.56;43.57
38616;BME280;24370;51.986;4.666;2023-04-09T04:13:06;102553.88;;;19.38;43.53
38616;BME280;24370;51.986;4.666;2023-04-09T04:15:41;102562.25;;;19.15;44.13
38616;BME280;24370;51.986;4.666;2023-04-09T04:18:07;102563.69;;;19.77;42.76
38616;BME280;24370;51.986;4.666;2023-04-09T04:20:33;102562.13;;;20.10;41.98
38616;BME280;24370;51.986;4.666;2023-04-09T04:22:58;102553.13;;;19.33;42.83
38616;BME280;24370;51.986;4.666;2023-04-09T04:25:24;102558.72;;;19.61;43.17
38616;BME280;24370;51.986;4.666;2023-04-09T04:27:49;102550.41;;;19.36;42.94
38616;BME280;24370;51.986;4.666;2023-04-09T04:30:14;102544.66;;;19.56;43.03
38616;BME280;24370;51.986;4.666;2023-04-09T04:32:39;102542.41;;;19.81;42.58
38616;BME280;24370;51.986;4.666;2023-04-09T04:35:05;102543.13;;;19.90;42.03
38616;BME280;24370;51.986;4.666;2023-04-09T04:37:31;102550.69;;;19.66;42.96
38616;BME280;24370;51.986;4.666;2023-04-09T04:39:56;102544.88;;;19.91;42.29
38616;BME280;24370;51.986;4.666;2023-04-09T04:42:21;102549.50;;;19.81;42.25
38616;BME280;24370;51.986;4.666;2023-04-09T04:44:47;102552.44;;;20.08;41.93
38616;BME280;24370;51.986;4.666;2023-04-09T04:47:12;102552.50;;;20.06;41.75
38616;BME280;24370;51.986;4.666;2023-04-09T04:49:38;102547.53;;;19.89;42.01
38616;BME280;24370;51.986;4.666;2023-04-09T04:52:06;102556.91;;;20.07;41.86
38616;BME280;24370;51.986;4.666;2023-04-09T04:54:32;102556.53;;;20.23;41.66
38616;BME280;24370;51.986;4.666;2023-04-09T04:56:57;102561.41;;;19.60;42.82
38616;BME280;24370;51.986;4.666;2023-04-09T04:59:23;102561.34;;;19.63;42.26
38616;BME280;24370;51.986;4.666;2023-04-09T05:01:48;102567.84;;;19.92;42.05
38616;BME280;24370;51.986;4.666;2023-04-09T05:04:14;102563.91;;;19.67;42.06
38616;BME280;24370;51.986;4.666;2023-04-09T05:06:39;102569.84;;;19.79;42.41
38616;BME280;24370;51.986;4.666;2023-04-09T05:09:04;102570.75;;;19.34;42.60
38616;BME280;24370;51.986;4.666;2023-04-09T05:11:30;102572.66;;;19.26;43.28
38616;BME280;24370;51.986;4.666;2023-04-09T05:13:55;102563.22;;;19.58;42.60
38616;BME280;24370;51.986;4.666;2023-04-09T05:16:21;102565.97;;;19.53;42.68
38616;BME280;24370;51.986;4.666;2023-04-09T05:18:46;102578.31;;;18.53;44.61
38616;BME280;24370;51.986;4.666;2023-04-09T05:21:12;102579.59;;;18.27;44.98
38616;BME280;24370;51.986;4.666;2023-04-09T05:23:37;102580.25;;;18.99;43.05
38616;BME280;24370;51.986;4.666;2023-04-09T05:26:05;102576.63;;;19.03;43.27
38616;BME280;24370;51.986;4.666;2023-04-09T05:28:31;102572.44;;;19.83;41.96
38616;BME280;24370;51.986;4.666;2023-04-09T05:30:57;102571.19;;;19.58;42.11
38616;BME280;24370;51.986;4.666;2023-04-09T05:33:22;102569.16;;;19.71;41.82
38616;BME280;24370;51.986;4.666;2023-04-09T05:35:47;102573.69;;;19.19;43.48
38616;BME280;24370;51.986;4.666;2023-04-09T05:38:13;102568.97;;;19.36;43.07
38616;BME280;24370;51.986;4.666;2023-04-09T05:40:38;102572.88;;;19.62;42.28
38616;BME280;24370;51.986;4.666;2023-04-09T05:43:04;102574.91;;;19.47;42.93
38616;BME280;24370;51.986;4.666;2023-04-09T05:45:30;102578.03;;;19.68;42.77
38616;BME280;24370;51.986;4.666;2023-04-09T05:47:55;102573.03;;;19.98;41.53
38616;BME280;24370;51.986;4.666;2023-04-09T05:50:21;102572.00;;;19.60;42.61
38616;BME280;24370;51.986;4.666;2023-04-09T05:52:46;102577.94;;;19.27;43.25
38616;BME280;24370;51.986;4.666;2023-04-09T05:55:12;102576.56;;;19.06;43.63
38616;BME280;24370;51.986;4.666;2023-04-09T05:57:37;102582.03;;;18.97;44.08
38616;BME280;24370;51.986;4.666;2023-04-09T06:00:06;102585.59;;;18.96;44.19
38616;BME280;24370;51.986;4.666;2023-04-09T06:02:32;102589.00;;;19.04;43.92
38616;BME280;24370;51.986;4.666;2023-04-09T06:04:57;102594.09;;;19.13;43.42
38616;BME280;24370;51.986;4.666;2023-04-09T06:07:23;102587.09;;;19.09;44.09
38616;BME280;24370;51.986;4.666;2023-04-09T06:09:48;102584.69;;;19.44;42.76
38616;BME280;24370;51.986;4.666;2023-04-09T06:12:13;102582.03;;;19.91;42.22
38616;BME280;24370;51.986;4.666;2023-04-09T06:14:40;102581.59;;;19.67;42.58
38616;BME280;24370;51.986;4.666;2023-04-09T06:17:05;102586.00;;;19.68;42.91
38616;BME280;24370;51.986;4.666;2023-04-09T06:19:30;102575.72;;;19.96;42.20
38616;BME280;24370;51.986;4.666;2023-04-09T06:21:56;102580.69;;;19.23;43.55
38616;BME280;24370;51.986;4.666;2023-04-09T06:24:22;102573.03;;;19.98;42.41
38616;BME280;24370;51.986;4.666;2023-04-09T06:26:47;102588.38;;;19.37;43.41
38616;BME280;24370;51.986;4.666;2023-04-09T06:29:13;102592.88;;;19.33;43.20
38616;BME280;24370;51.986;4.666;2023-04-09T06:31:38;102578.91;;;19.70;42.66
38616;BME280;24370;51.986;4.666;2023-04-09T06:34:04;102592.41;;;20.00;41.80
38616;BME280;24370;51.986;4.666;2023-04-09T06:36:29;102587.88;;;20.05;41.45
38616;BME280;24370;51.986;4.666;2023-04-09T06:38:54;102588.50;;;20.16;41.90
38616;BME280;24370;51.986;4.666;2023-04-09T06:41:21;102593.91;;;20.13;41.86
38616;BME280;24370;51.986;4.666;2023-04-09T06:43:47;102601.56;;;19.87;42.51
38616;BME280;24370;51.986;4.666;2023-04-09T06:46:12;102599.19;;;20.15;41.63
38616;BME280;24370;51.986;4.666;2023-04-09T06:48:41;102599.31;;;19.20;43.59
38616;BME280;24370;51.986;4.666;2023-04-09T06:51:09;102590.47;;;19.64;42.94
38616;BME280;24370;51.986;4.666;2023-04-09T06:53:34;102598.22;;;20.17;41.59
38616;BME280;24370;51.986;4.666;2023-04-09T06:56:00;102596.31;;;19.83;42.05
38616;BME280;24370;51.986;4.666;2023-04-09T06:58:25;102596.16;;;19.91;41.95
38616;BME280;24370;51.986;4.666;2023-04-09T07:00:50;102588.75;;;20.07;41.88
38616;BME280;24370;51.986;4.666;2023-04-09T07:03:16;102587.88;;;20.05;41.76
38616;BME280;24370;51.986;4.666;2023-04-09T07:05:41;102590.22;;;19.77;42.78
38616;BME280;24370;51.986;4.666;2023-04-09T07:08:07;102596.41;;;19.77;42.85
38616;BME280;24370;51.986;4.666;2023-04-09T07:10:32;102602.25;;;19.04;43.70
38616;BME280;24370;51.986;4.666;2023-04-09T07:12:57;102599.69;;;18.98;44.09
38616;BME280;24370;51.986;4.666;2023-04-09T07:15:23;102588.25;;;19.44;43.04
38616;BME280;24370;51.986;4.666;2023-04-09T07:17:48;102593.97;;;20.10;42.06
38616;BME280;24370;51.986;4.666;2023-04-09T07:20:13;102592.50;;;19.97;42.14
38616;BME280;24370;51.986;4.666;2023-04-09T07:22:39;102593.97;;;20.10;41.81
38616;BME280;24370;51.986;4.666;2023-04-09T07:25:06;102599.97;;;19.76;41.93
38616;BME280;24370;51.986;4.666;2023-04-09T07:27:31;102598.69;;;19.54;42.49
38616;BME280;24370;51.986;4.666;2023-04-09T07:29:58;102598.47;;;19.63;42.58
38616;BME280;24370;51.986;4.666;2023-04-09T07:32:24;102596.00;;;19.55;42.14
38616;BME280;24370;51.986;4.666;2023-04-09T07:34:51;102595.28;;;19.91;41.58
38616;BME280;24370;51.986;4.666;2023-04-09T07:37:17;102590.22;;;19.77;41.39
38616;BME280;24370;51.986;4.666;2023-04-09T07:39:42;102602.84;;;19.19;43.27
38616;BME280;24370;51.986;4.666;2023-04-09T07:42:07;102586.88;;;19.67;41.64
38616;BME280;24370;51.986;4.666;2023-04-09T07:44:34;102592.81;;;20.22;41.16
38616;BME280;24370;51.986;4.666;2023-04-09T07:47:01;102594.41;;;19.90;41.18
38616;BME280;24370;51.986;4.666;2023-04-09T07:49:26;102587.00;;;20.06;40.88
38616;BME280;24370;51.986;4.666;2023-04-09T07:51:52;102590.28;;;20.17;41.24
38616;BME280;24370;51.986;4.666;2023-04-09T07:54:17;102593.78;;;19.32;42.46
38616;BME280;24370;51.986;4.666;2023-04-09T07:56:45;102605.41;;;19.25;41.96
38616;BME280;24370;51.986;4.666;2023-04-09T07:59:10;102599.03;;;19.79;41.30
38616;BME280;24370;51.986;4.666;2023-04-09T08:01:36;102596.91;;;19.53;41.98
38616;BME280;24370;51.986;4.666;2023-04-09T08:04:01;102595.53;;;19.77;41.70
38616;BME280;24370;51.986;4.666;2023-04-09T08:06:27;102604.00;;;19.96;41.35
38616;BME280;24370;51.986;4.666;2023-04-09T08:08:52;102602.47;;;19.40;41.37
38616;BME280;24370;51.986;4.666;2023-04-09T08:11:18;102593.84;;;19.73;41.47
38616;BME280;24370;51.986;4.666;2023-04-09T08:13:52;102595.00;;;20.05;40.80
38616;BME280;24370;51.986;4.666;2023-04-09T08:16:17;102594.66;;;20.20;40.13
38616;BME280;24370;51.986;4.666;2023-04-09T08:18:43;102590.59;;;20.04;40.59
38616;BME280;24370;51.986;4.666;2023-04-09T08:21:08;102591.59;;;19.54;41.46
38616;BME280;24370;51.986;4.666;2023-04-09T08:23:33;102594.56;;;19.37;41.88
38616;BME280;24370;51.986;4.666;2023-04-09T08:25:59;102598.53;;;19.60;41.72
38616;BME280;24370;51.986;4.666;2023-04-09T08:28:24;102601.28;;;19.08;41.92
38616;BME280;24370;51.986;4.666;2023-04-09T08:30:50;102593.47;;;19.47;41.58
38616;BME280;24370;51.986;4.666;2023-04-09T08:33:16;102598.44;;;19.66;41.17
38616;BME280;24370;51.986;4.666;2023-04-09T08:35:41;102598.88;;;18.35;44.51
38616;BME280;24370;51.986;4.666;2023-04-09T08:38:07;102607.47;;;18.51;44.48
38616;BME280;24370;51.986;4.666;2023-04-09T08:40:36;102608.50;;;19.48;42.26
38616;BME280;24370;51.986;4.666;2023-04-09T08:43:05;102609.97;;;19.17;42.53
38616;BME280;24370;51.986;4.666;2023-04-09T08:45:31;102609.88;;;19.68;41.61
38616;BME280;24370;51.986;4.666;2023-04-09T08:47:57;102615.31;;;19.60;41.40
38616;BME280;24370;51.986;4.666;2023-04-09T08:50:26;102612.16;;;19.41;42.27
38616;BME280;24370;51.986;4.666;2023-04-09T08:52:52;102615.88;;;18.79;43.27
38616;BME280;24370;51.986;4.666;2023-04-09T08:55:18;102606.91;;;19.83;40.98
38616;BME280;24370;51.986;4.666;2023-04-09T08:57:43;102615.88;;;19.31;42.10
38616;BME280;24370;51.986;4.666;2023-04-09T09:00:09;102611.38;;;19.83;41.04
38616;BME280;24370;51.986;4.666;2023-04-09T09:02:35;102603.47;;;19.77;40.26
38616;BME280;24370;51.986;4.666;2023-04-09T09:05:01;102605.19;;;19.82;41.22
38616;BME280;24370;51.986;4.666;2023-04-09T09:07:30;102603.25;;;20.30;40.19
38616;BME280;24370;51.986;4.666;2023-04-09T09:09:57;102612.19;;;18.90;42.53
38616;BME280;24370;51.986;4.666;2023-04-09T09:12:40;102611.06;;;19.97;40.47
38616;BME280;24370;51.986;4.666;2023-04-09T09:15:29;102607.47;;;20.40;39.94
38616;BME280;24370;51.986;4.666;2023-04-09T09:17:56;102608.69;;;19.85;40.01
38616;BME280;24370;51.986;4.666;2023-04-09T09:20:23;102608.03;;;20.91;38.29
38616;BME280;24370;51.986;4.666;2023-04-09T09:22:51;102610.41;;;20.26;39.27
38616;BME280;24370;51.986;4.666;2023-04-09T09:25:16;102606.34;;;20.11;39.92
38616;BME280;24370;51.986;4.666;2023-04-09T09:27:42;102610.69;;;20.14;39.23
38616;BME280;24370;51.986;4.666;2023-04-09T09:30:09;102608.25;;;19.61;40.38
38616;BME280;24370;51.986;4.666;2023-04-09T09:32:44;102596.22;;;21.02;38.16
38616;BME280;24370;51.986;4.666;2023-04-09T09:35:10;102605.25;;;20.58;38.53
38616;BME280;24370;51.986;4.666;2023-04-09T09:37:35;102598.50;;;20.05;39.43
38616;BME280;24370;51.986;4.666;2023-04-09T09:40:00;102595.78;;;20.08;39.53
38616;BME280;24370;51.986;4.666;2023-04-09T09:42:26;102586.00;;;19.68;40.10
38616;BME280;24370;51.986;4.666;2023-04-09T09:44:52;102585.97;;;20.12;39.99
38616;BME280;24370;51.986;4.666;2023-04-09T09:47:19;102579.66;;;20.55;38.98
38616;BME280;24370;51.986;4.666;2023-04-09T09:49:47;102580.56;;;21.25;37.88
38616;BME280;24370;51.986;4.666;2023-04-09T09:52:12;102573.88;;;20.38;38.91
38616;BME280;24370;51.986;4.666;2023-04-09T09:54:42;102574.25;;;20.96;38.12
38616;BME280;24370;51.986;4.666;2023-04-09T09:57:11;102572.63;;;21.23;38.35
38616;BME280;24370;51.986;4.666;2023-04-09T09:59:41;102570.63;;;22.23;37.13
38616;BME280;24370;51.986;4.666;2023-04-09T10:02:18;102567.41;;;22.41;35.34
38616;BME280;24370;51.986;4.666;2023-04-09T10:04:43;102553.38;;;22.63;35.81
38616;BME280;24370;51.986;4.666;2023-04-09T10:07:09;102550.34;;;23.49;34.26
38616;BME280;24370;51.986;4.666;2023-04-09T10:09:36;102554.34;;;22.32;35.51
38616;BME280;24370;51.986;4.666;2023-04-09T10:12:06;102552.00;;;23.03;33.83
38616;BME280;24370;51.986;4.666;2023-04-09T10:14:33;102545.56;;;23.09;33.55
38616;BME280;24370;51.986;4.666;2023-04-09T10:17:00;102545.72;;;22.24;35.85
38616;BME280;24370;51.986;4.666;2023-04-09T10:19:28;102551.09;;;22.77;35.73
38616;BME280;24370;51.986;4.666;2023-04-09T10:22:11;102543.88;;;22.54;35.48
38616;BME280;24370;51.986;4.666;2023-04-09T10:24:38;102535.59;;;22.08;36.70
38616;BME280;24370;51.986;4.666;2023-04-09T10:27:14;102534.53;;;23.19;35.25
38616;BME280;24370;51.986;4.666;2023-04-09T10:29:46;102533.16;;;22.29;35.77
38616;BME280;24370;51.986;4.666;2023-04-09T10:32:17;102534.88;;;20.77;37.46
38616;BME280;24370;51.986;4.666;2023-04-09T10:34:45;102528.28;;;22.15;36.28
38616;BME280;24370;51.986;4.666;2023-04-09T10:37:28;102532.38;;;22.25;36.35
38616;BME280;24370;51.986;4.666;2023-04-09T10:39:54;102526.53;;;23.19;35.13
38616;BME280;24370;51.986;4.666;2023-04-09T10:42:33;102516.91;;;23.86;34.13
38616;BME280;24370;51.986;4.666;2023-04-09T10:45:13;102512.44;;;24.09;32.95
38616;BME280;24370;51.986;4.666;2023-04-09T10:47:40;102518.31;;;24.62;32.92
38616;BME280;24370;51.986;4.666;2023-04-09T10:50:41;102512.84;;;24.85;31.37
38616;BME280;24370;51.986;4.666;2023-04-09T10:53:06;102505.22;;;24.97;31.73
38616;BME280;24370;51.986;4.666;2023-04-09T10:55:48;102501.22;;;23.55;33.25
38616;BME280;24370;51.986;4.666;2023-04-09T10:58:15;102502.13;;;25.06;31.80
38616;BME280;24370;51.986;4.666;2023-04-09T11:00:42;102502.41;;;24.79;32.58
38616;BME280;24370;51.986;4.666;2023-04-09T11:05:34;102493.88;;;25.69;31.34
38616;BME280;24370;51.986;4.666;2023-04-09T11:08:11;102494.19;;;25.23;31.09
38616;BME280;24370;51.986;4.666;2023-04-09T11:10:38;102490.34;;;24.48;32.58
38616;BME280;24370;51.986;4.666;2023-04-09T11:13:10;102481.28;;;25.33;31.53
38616;BME280;24370;51.986;4.666;2023-04-09T11:15:36;102483.59;;;25.79;31.71
38616;BME280;24370;51.986;4.666;2023-04-09T11:18:02;102477.09;;;26.21;30.95
38616;BME280;24370;51.986;4.666;2023-04-09T11:20:28;102477.72;;;25.90;30.25
38616;BME280;24370;51.986;4.666;2023-04-09T11:22:55;102469.81;;;26.76;29.92
38616;BME280;24370;51.986;4.666;2023-04-09T11:25:25;102466.28;;;29.23;26.83
38616;BME280;24370;51.986;4.666;2023-04-09T11:27:51;102469.16;;;28.48;27.37
38616;BME280;24370;51.986;4.666;2023-04-09T11:30:17;102469.88;;;26.92;28.80
38616;BME280;24370;51.986;4.666;2023-04-09T11:32:43;102468.56;;;26.31;29.92
38616;BME280;24370;51.986;4.666;2023-04-09T11:35:13;102474.41;;;26.21;30.57
38616;BME280;24370;51.986;4.666;2023-04-09T11:37:39;102471.84;;;25.24;30.81
38616;BME280;24370;51.986;4.666;2023-04-09T11:40:06;102468.31;;;24.84;31.70
38616;BME280;24370;51.986;4.666;2023-04-09T11:42:31;102463.31;;;25.16;32.13
38616;BME280;24370;51.986;4.666;2023-04-09T11:44:57;102461.50;;;24.98;31.23
38616;BME280;24370;51.986;4.666;2023-04-09T11:47:23;102464.34;;;25.71;31.13
38616;BME280;24370;51.986;4.666;2023-04-09T11:49:49;102466.34;;;26.04;30.66
38616;BME280;24370;51.986;4.666;2023-04-09T11:52:14;102454.56;;;25.32;31.28
38616;BME280;24370;51.986;4.666;2023-04-09T11:54:41;102460.13;;;25.84;31.03
38616;BME280;24370;51.986;4.666;2023-04-09T11:57:06;102462.88;;;23.58;33.18
38616;BME280;24370;51.986;4.666;2023-04-09T11:59:32;102459.13;;;25.11;31.31
38616;BME280;24370;51.986;4.666;2023-04-09T12:01:57;102461.56;;;25.15;31.45
38616;BME280;24370;51.986;4.666;2023-04-09T12:04:23;102449.84;;;27.15;29.60
38616;BME280;24370;51.986;4.666;2023-04-09T12:06:49;102454.25;;;24.59;32.75
38616;BME280;24370;51.986;4.666;2023-04-09T12:09:14;102444.28;;;26.16;31.15
38616;BME280;24370;51.986;4.666;2023-04-09T12:11:44;102444.59;;;26.63;30.54
38616;BME280;24370;51.986;4.666;2023-04-09T12:14:17;102449.66;;;26.16;30.09
38616;BME280;24370;51.986;4.666;2023-04-09T12:16:43;102448.59;;;27.38;29.03
38616;BME280;24370;51.986;4.666;2023-04-09T12:19:10;102446.38;;;28.09;27.49
38616;BME280;24370;51.986;4.666;2023-04-09T12:24:14;102444.59;;;28.83;26.71
38616;BME280;24370;51.986;4.666;2023-04-09T12:26:41;102441.00;;;28.09;28.36
38616;BME280;24370;51.986;4.666;2023-04-09T12:29:07;102438.66;;;27.23;28.37
38616;BME280;24370;51.986;4.666;2023-04-09T12:31:32;102430.34;;;26.96;28.86
38616;BME280;24370;51.986;4.666;2023-04-09T12:33:57;102450.75;;;25.56;30.35
38616;BME280;24370;51.986;4.666;2023-04-09T12:36:23;102442.19;;;27.41;28.23
38616;BME280;24370;51.986;4.666;2023-04-09T12:38:49;102441.50;;;28.16;27.85
38616;BME280;24370;51.986;4.666;2023-04-09T12:41:14;102446.78;;;27.39;28.78
38616;BME280;24370;51.986;4.666;2023-04-09T12:43:40;102442.59;;;27.33;28.41
38616;BME280;24370;51.986;4.666;2023-04-09T12:46:08;102441.75;;;27.49;28.23
38616;BME280;24370;51.986;4.666;2023-04-09T12:48:33;102446.00;;;26.87;29.16
38616;BME280;24370;51.986;4.666;2023-04-09T12:50:59;102436.91;;;27.55;28.89
38616;BME280;24370;51.986;4.666;2023-04-09T12:53:25;102438.16;;;27.16;28.78
38616;BME280;24370;51.986;4.666;2023-04-09T12:55:50;102437.22;;;27.65;28.77
38616;BME280;24370;51.986;4.666;2023-04-09T12:58:16;102435.09;;;28.18;26.69
38616;BME280;24370;51.986;4.666;2023-04-09T13:00:41;102443.91;;;25.87;30.87
38616;BME280;24370;51.986;4.666;2023-04-09T13:03:07;102452.50;;;25.57;29.59